createdAt,value
2023-02-15T00:00:58.049Z,31.5
2023-02-15T00:07:18.108Z,31.5
2023-02-15T00:13:41.000Z,28.6
2023-02-15T00:20:01.184Z,28.6
2023-02-15T00:26:23.986Z,29.3
2023-02-15T00:32:44.015Z,29.3
2023-02-15T00:39:07.014Z,42.2
2023-02-15T00:45:27.114Z,42.2
2023-02-15T00:51:49.933Z,24
2023-02-15T00:58:10.165Z,24
2023-02-15T01:04:32.980Z,21.2
2023-02-15T01:10:52.949Z,21.2
2023-02-15T01:17:16.022Z,17.2
2023-02-15T01:23:35.995Z,17.2
2023-02-15T01:29:58.985Z,17.2
2023-02-15T01:36:19.028Z,17.2
2023-02-15T01:42:41.927Z,28.8
2023-02-15T01:49:01.968Z,28.8
2023-02-15T01:55:24.963Z,20.4
2023-02-15T02:01:44.958Z,20.4
2023-02-15T02:08:07.976Z,25
2023-02-15T02:14:28.129Z,25
2023-02-15T02:20:51.030Z,16.9
2023-02-15T02:27:11.062Z,16.9
2023-02-15T02:33:34.104Z,27.5
2023-02-15T02:39:53.986Z,27.5
2023-02-15T02:46:17.028Z,40
2023-02-15T02:52:37.128Z,40
2023-02-15T02:59:00.008Z,48.8
2023-02-15T03:05:19.935Z,48.8
2023-02-15T03:11:43.009Z,18.8
2023-02-15T03:18:02.937Z,18.8
2023-02-15T03:24:27.294Z,20.5
2023-02-15T03:30:46.094Z,20.5
2023-02-15T03:37:08.944Z,32.6
2023-02-15T03:43:28.940Z,32.6
2023-02-15T03:49:51.925Z,28.6
2023-02-15T03:56:12.061Z,28.6
2023-02-15T04:02:35.123Z,48.2
2023-02-15T04:25:41.840Z,15.1
2023-02-15T04:32:02.139Z,15.1
2023-02-15T04:38:25.055Z,23.9
2023-02-15T04:44:45.029Z,23.9
2023-02-15T04:51:07.945Z,22.5
2023-02-15T04:57:27.888Z,22.5
2023-02-15T05:03:51.056Z,29.1
2023-02-15T05:10:11.156Z,29.1
2023-02-15T05:16:34.119Z,13.5
2023-02-15T05:22:55.234Z,13.5
2023-02-15T05:29:18.044Z,22.3
2023-02-15T05:35:38.061Z,22.3
2023-02-15T05:42:00.961Z,25.7
2023-02-15T05:48:20.946Z,25.7
2023-02-15T05:54:43.961Z,31.1
2023-02-15T06:01:03.929Z,31.1
2023-02-15T06:07:27.065Z,21.9
2023-02-15T06:13:47.085Z,21.9
2023-02-15T06:20:10.063Z,15.4
2023-02-15T06:26:30.069Z,15.4
2023-02-15T06:32:52.972Z,35.8
2023-02-15T06:39:12.977Z,35.8
2023-02-15T06:45:35.967Z,20.4
2023-02-15T06:51:55.922Z,20.4
2023-02-15T06:58:18.985Z,16.4
2023-02-15T07:04:38.944Z,16.4
2023-02-15T07:11:01.922Z,19.5
2023-02-15T07:17:36.213Z,19.5
2023-02-15T07:23:45.067Z,42.9
2023-02-15T07:30:05.006Z,42.9
2023-02-15T07:36:27.942Z,21.8
2023-02-15T07:42:48.015Z,21.8
2023-02-15T07:49:11.020Z,18.8
2023-02-15T07:55:31.044Z,18.8
2023-02-15T08:01:54.004Z,13.1
2023-02-15T08:08:13.894Z,13.1
2023-02-15T08:14:36.934Z,24.9
2023-02-15T08:20:56.966Z,24.9
2023-02-15T08:27:19.941Z,14.9
2023-02-15T08:33:39.991Z,14.9
2023-02-15T08:40:02.955Z,11.1
2023-02-15T08:46:22.963Z,11.1
2023-02-15T08:52:46.015Z,11.5
2023-02-15T08:59:05.919Z,11.5
2023-02-15T09:05:28.999Z,13.4
2023-02-15T09:11:48.970Z,13.4
2023-02-15T09:18:11.960Z,9.4
2023-02-15T09:34:18.781Z,11.1
2023-02-15T09:40:38.907Z,11.1
2023-02-15T09:47:01.942Z,20.5
2023-02-15T09:53:22.005Z,20.5
2023-02-15T09:59:45.035Z,20.5
2023-02-15T10:06:04.963Z,20.5
2023-02-15T10:12:28.022Z,12.2
2023-02-15T10:18:47.973Z,12.2
2023-02-15T10:25:11.023Z,8.6
2023-02-15T10:31:31.162Z,8.6
2023-02-15T10:37:53.963Z,7.9
2023-02-15T10:44:13.996Z,7.9
2023-02-15T10:50:37.048Z,5.5
2023-02-15T10:56:56.991Z,5.5
2023-02-15T11:03:19.962Z,9
2023-02-15T11:09:39.989Z,9
2023-02-15T11:16:03.046Z,16.5
2023-02-15T11:22:22.921Z,16.5
2023-02-15T11:28:46.069Z,35.2
2023-02-15T11:35:05.958Z,35.2
2023-02-15T11:41:28.931Z,15.4
2023-02-15T11:47:48.988Z,15.4
2023-02-15T11:54:11.962Z,9.3
2023-02-15T12:00:31.978Z,9.3
2023-02-15T12:06:55.072Z,13.1
2023-02-15T12:13:14.947Z,13.1
2023-02-15T12:19:37.969Z,9.7
2023-02-15T12:25:58.690Z,9.7
2023-02-15T12:32:22.060Z,12.3
2023-02-15T12:38:41.941Z,12.3
2023-02-15T12:45:05.039Z,10.2
2023-02-15T12:51:24.923Z,10.2
2023-02-15T12:57:47.928Z,5.5
2023-02-15T13:04:07.989Z,5.5
2023-02-15T13:10:30.948Z,21.1
2023-02-15T13:16:51.064Z,21.1
2023-02-15T13:23:13.975Z,8.3
2023-02-15T13:29:35.889Z,8.3
2023-02-15T13:35:56.951Z,10.2
2023-02-15T13:42:16.981Z,10.2
2023-02-15T13:48:47.097Z,10.7
2023-02-15T13:54:59.928Z,10.7
2023-02-15T14:01:23.055Z,11.9
2023-02-15T14:07:43.028Z,11.9
2023-02-15T14:14:05.919Z,10.7
2023-02-15T14:20:26.011Z,10.7
2023-02-15T14:26:48.908Z,11.2
2023-02-15T14:33:08.920Z,11.2
2023-02-15T14:39:32.580Z,29.8
2023-02-15T15:03:14.868Z,7.7
2023-02-15T15:09:34.912Z,7.7
2023-02-15T15:15:58.016Z,10.2
2023-02-15T15:22:17.957Z,10.2
2023-02-15T15:28:41.468Z,9.3
2023-02-15T15:35:00.942Z,9.3
2023-02-15T15:41:23.957Z,8.7
2023-02-15T15:47:43.960Z,8.7
2023-02-15T15:54:06.959Z,7.4
2023-02-15T16:00:27.085Z,7.4
2023-02-15T16:06:49.978Z,10
2023-02-15T16:13:09.945Z,10
2023-02-15T16:19:33.058Z,11.9
2023-02-15T16:25:52.963Z,11.9
2023-02-15T16:32:16.118Z,7.1
2023-02-15T16:38:36.042Z,7.1
2023-02-15T16:44:58.934Z,13.6
2023-02-15T16:51:19.015Z,13.6
2023-02-15T16:57:41.949Z,10.8
2023-02-15T17:04:02.063Z,10.8
2023-02-15T17:10:24.945Z,10.5
2023-02-15T17:16:45.027Z,10.5
2023-02-15T17:23:07.935Z,10.4
2023-02-15T17:29:27.984Z,10.4
2023-02-15T17:35:51.051Z,12.3
2023-02-15T17:42:10.985Z,12.3
2023-02-15T17:48:33.977Z,16.3
2023-02-15T17:54:54.098Z,16.3
2023-02-15T18:01:17.108Z,10.5
2023-02-15T18:07:36.963Z,10.5
2023-02-15T18:14:00.005Z,16
2023-02-15T18:20:20.090Z,16
2023-02-15T18:26:42.940Z,11.9
2023-02-15T18:33:03.017Z,11.9
2023-02-15T18:39:25.892Z,11.1
2023-02-15T18:45:45.941Z,11.1
2023-02-15T18:52:09.079Z,7.2
2023-02-15T18:58:28.922Z,7.2
2023-02-15T19:04:51.926Z,9.7
2023-02-15T19:11:12.017Z,9.7
2023-02-15T19:17:35.020Z,14.8
2023-02-15T19:23:54.973Z,14.8
2023-02-15T19:30:18.083Z,13.1
2023-02-15T19:36:37.999Z,13.1
2023-02-15T19:43:01.010Z,9.7
2023-02-15T19:49:20.956Z,9.7
2023-02-15T19:55:43.958Z,16.6
2023-02-15T20:18:14.867Z,36.9
2023-02-15T20:24:34.927Z,36.9
2023-02-15T20:30:58.023Z,11.4
2023-02-15T20:37:17.971Z,11.4
2023-02-15T20:43:40.981Z,20.1
2023-02-15T20:50:01.009Z,20.1
2023-02-15T20:56:24.005Z,17.3
2023-02-15T21:02:44.019Z,17.3
2023-02-15T21:09:06.936Z,20.1
2023-02-15T21:15:27.036Z,20.1
2023-02-15T21:21:50.071Z,14.2
2023-02-15T21:28:10.010Z,14.2
2023-02-15T21:34:33.003Z,10.6
2023-02-15T21:40:53.020Z,10.6
2023-02-15T21:47:15.989Z,10.8
2023-02-15T21:53:36.128Z,10.8
2023-02-15T21:59:59.009Z,19.9
2023-02-15T22:06:18.976Z,19.9
2023-02-15T22:12:42.089Z,16.5
2023-02-15T22:19:02.279Z,16.5
2023-02-15T22:25:25.217Z,22.6
2023-02-15T22:31:45.300Z,22.6
2023-02-15T22:38:07.986Z,19.3
2023-02-15T22:44:27.967Z,19.3
2023-02-15T22:50:50.935Z,17.3
2023-02-15T22:57:10.956Z,17.3
2023-02-15T23:22:44.954Z,45.8
2023-02-15T23:29:04.897Z,45.8
2023-02-15T23:35:27.939Z,45.8
2023-02-15T23:41:48.093Z,45.8
2023-02-15T23:48:11.064Z,18.2
2023-02-15T23:54:30.901Z,18.2
